School Creek, Nebraska
Current Conditions -  °F | °C
As of 10:55 PM on Thursday 30 Oct 2014 (Local Time) from KAUH Reporting Station
Broken Clouds Broken Clouds  
Wind Chill: 33°   Ceiling: 1900
Heat Index: 41°   Visibility: 10mi
Dew Point: 32°   Wind: 16mph
Humidity: 70%   Direction: 10°N
Pressure: 30.4"   Gusts: 25mph
Location:  40.6539°N, 97.8811°W
Report Text: KAUH 310355Z AUTO 01014G22KT 10SM BKN019 05/00 A3040 RMK AO2 T00520002
Loading
Personal Weather Stations






























Interactive Weather Map
Tropical Storm Tracking
New forecast layout! Learn more

10-Day Weather Forecast

Advertisements
Track Severe Weather on mobile